Time;durP1;ratioP1;P1;durP2;ratioP2;P2;SDS_P1;SDS_P2;PMS_P1;PMS_P2;Temp;Humidity;BMP_temperature;BMP_pressure;BME280_temperature;BME280_humidity;BME280_pressure;Samples;Min_cycle;Max_cycle;Signal;HPM_P1;HPM_P2
2022/04/17 00:01:02;;;;;;;3.78;2.03;;;9.40;77.00;;;;;;4999768;28;20113;-69
2022/04/17 00:03:27;;;;;;;1.50;1.00;;;9.40;77.10;;;;;;4996656;28;20144;-68
2022/04/17 00:05:53;;;;;;;2.33;1.27;;;9.30;77.90;;;;;;4997091;28;20443;-68
2022/04/17 00:08:19;;;;;;;2.85;1.30;;;9.30;77.90;;;;;;4999986;28;20490;-69
2022/04/17 00:10:46;;;;;;;2.67;1.45;;;9.20;78.20;;;;;;5000637;28;20034;-66
2022/04/17 00:13:11;;;;;;;4.72;1.42;;;9.10;78.80;;;;;;5003929;28;20049;-69
2022/04/17 00:15:37;;;;;;;3.70;1.05;;;9.20;78.70;;;;;;5001495;28;20039;-68
2022/04/17 00:18:02;;;;;;;2.22;1.15;;;9.10;79.30;;;;;;5003426;28;20037;-69
2022/04/17 00:20:28;;;;;;;2.17;1.13;;;9.10;79.50;;;;;;5000216;28;20043;-68
2022/04/17 00:22:54;;;;;;;4.85;1.75;;;9.10;80.00;;;;;;5003077;28;20097;-69
2022/04/17 00:25:19;;;;;;;3.10;1.40;;;9.00;80.40;;;;;;5002750;28;20559;-69
2022/04/17 00:27:45;;;;;;;3.67;1.73;;;9.00;80.80;;;;;;5002958;28;20113;-65
2022/04/17 00:30:11;;;;;;;6.28;1.73;;;8.90;81.00;;;;;;5003215;28;20062;-69
2022/04/17 00:32:38;;;;;;;3.17;1.50;;;8.90;81.10;;;;;;4999793;28;20045;-68
2022/04/17 00:35:05;;;;;;;3.83;1.85;;;8.90;81.90;;;;;;5003766;28;20049;-68
2022/04/17 00:37:31;;;;;;;3.83;1.42;;;8.90;81.80;;;;;;5003604;28;20375;-68
2022/04/17 00:39:57;;;;;;;3.83;1.50;;;8.80;82.30;;;;;;4999545;28;20054;-68
2022/04/17 00:42:23;;;;;;;2.80;1.70;;;8.80;82.60;;;;;;5005088;28;20076;-68
2022/04/17 00:44:48;;;;;;;7.90;2.00;;;8.70;83.00;;;;;;5002073;28;20049;-69
2022/04/17 00:47:16;;;;;;;5.50;1.88;;;8.70;83.30;;;;;;5000146;28;20050;-68
2022/04/17 00:49:46;;;;;;;6.10;1.80;;;8.60;83.80;;;;;;5003437;28;20045;-69
2022/04/17 00:52:12;;;;;;;5.18;2.10;;;8.60;84.10;;;;;;5001446;28;20426;-70
2022/04/17 00:54:50;;;;;;;3.85;1.85;;;8.60;84.20;;;;;;5002016;28;20037;-69
2022/04/17 00:57:17;;;;;;;6.47;1.60;;;8.60;84.90;;;;;;5001680;28;20043;-70
2022/04/17 00:59:44;;;;;;;2.85;1.33;;;8.60;85.10;;;;;;5002654;28;20033;-69
2022/04/17 01:02:11;;;;;;;5.30;1.58;;;8.50;85.30;;;;;;5001317;28;20046;-68
2022/04/17 01:04:38;;;;;;;4.82;1.50;;;8.50;85.90;;;;;;4999677;28;20129;-69
2022/04/17 01:07:04;;;;;;;2.75;1.67;;;8.40;85.70;;;;;;5003246;28;20030;-67
2022/04/17 01:09:30;;;;;;;9.32;1.85;;;8.50;86.00;;;;;;5000840;28;20038;-69
2022/04/17 01:11:57;;;;;;;5.78;2.20;;;8.40;86.50;;;;;;5003107;28;20057;-68
2022/04/17 01:14:23;;;;;;;3.25;1.75;;;8.40;87.00;;;;;;5000767;28;20252;-68
2022/04/17 01:16:49;;;;;;;4.53;1.63;;;8.30;87.10;;;;;;5002407;28;20514;-69
2022/04/17 01:19:14;;;;;;;7.53;2.05;;;8.30;87.30;;;;;;5001688;28;20117;-69
2022/04/17 01:21:41;;;;;;;4.68;2.15;;;8.20;87.50;;;;;;4999509;28;20173;-68
2022/04/17 01:26:57;;;;;;;3.75;1.90;;;8.20;88.10;;;;;;5002942;28;20806;-68
2022/04/17 01:29:31;;;;;;;5.85;2.20;;;8.20;87.80;;;;;;5000700;28;20081;-69
2022/04/17 01:31:58;;;;;;;5.57;2.65;;;8.20;88.10;;;;;;4999635;28;20026;-68
2022/04/17 01:34:24;;;;;;;3.85;1.75;;;8.10;89.10;;;;;;5002816;28;20038;-68
2022/04/17 01:36:51;;;;;;;6.63;2.25;;;8.20;88.20;;;;;;5005478;22;20054;-61
2022/04/17 01:39:18;;;;;;;8.00;1.90;;;8.20;88.10;;;;;;4982773;28;20037;-62
2022/04/17 01:41:44;;;;;;;6.28;2.25;;;8.10;88.70;;;;;;4982325;28;20558;-62
2022/04/17 01:44:10;;;;;;;4.40;1.73;;;8.10;88.40;;;;;;4987304;28;20069;-62
2022/04/17 01:46:36;;;;;;;5.22;1.98;;;8.10;88.50;;;;;;5002327;22;20070;-68
2022/04/17 01:49:03;;;;;;;3.90;1.90;;;8.00;88.50;;;;;;5002981;28;20390;-68
2022/04/17 01:51:34;;;;;;;7.50;2.60;;;8.00;89.00;;;;;;4999884;28;20129;-69
2022/04/17 01:54:01;;;;;;;5.50;2.20;;;8.00;88.70;;;;;;5000583;28;20571;-68
2022/04/17 01:56:27;;;;;;;3.15;1.88;;;7.90;89.10;;;;;;4995839;28;20040;-68
2022/04/17 01:58:52;;;;;;;3.53;1.80;;;8.00;88.90;;;;;;4991053;28;20072;-67
2022/04/17 02:01:18;;;;;;;3.80;2.03;;;7.90;89.10;;;;;;4991193;28;20064;-68
2022/04/17 02:03:43;;;;;;;5.55;2.47;;;7.90;89.40;;;;;;4990834;28;20113;-66
2022/04/17 02:06:09;;;;;;;4.53;1.80;;;7.90;89.70;;;;;;4990776;28;20138;-68
2022/04/17 02:08:34;;;;;;;5.95;2.17;;;7.80;90.20;;;;;;4990921;28;20022;-69
2022/04/17 02:11:00;;;;;;;4.30;2.05;;;7.70;90.40;;;;;;4990936;28;20041;-68
2022/04/17 02:13:27;;;;;;;4.68;1.80;;;7.80;89.70;;;;;;4991315;28;20050;-68
2022/04/17 02:15:53;;;;;;;4.75;2.40;;;7.80;90.00;;;;;;4990639;28;20037;-70
2022/04/17 02:18:25;;;;;;;7.28;2.20;;;7.80;89.30;;;;;;4990214;28;20038;-69
2022/04/17 02:20:53;;;;;;;7.30;2.55;;;7.70;89.80;;;;;;4993283;28;20050;-70
2022/04/17 02:23:18;;;;;;;6.78;2.38;;;7.70;90.00;;;;;;4995335;28;20062;-68
2022/04/17 02:25:44;;;;;;;6.00;2.28;;;7.70;89.10;;;;;;4993833;28;20060;-68
2022/04/17 02:28:10;;;;;;;5.10;2.67;;;7.80;88.60;;;;;;4991321;28;20386;-69
2022/04/17 02:30:36;;;;;;;3.72;2.08;;;7.80;90.00;;;;;;4991691;28;20038;-68
2022/04/17 02:33:02;;;;;;;5.82;2.40;;;7.70;89.20;;;;;;4989660;28;20033;-68
2022/04/17 02:35:28;;;;;;;6.93;3.10;;;7.70;89.40;;;;;;4989694;28;20558;-68
2022/04/17 02:37:54;;;;;;;5.47;2.47;;;7.70;89.20;;;;;;4990435;28;20038;-69
2022/04/17 02:40:20;;;;;;;7.40;2.22;;;7.70;89.80;;;;;;4990930;28;20076;-68
2022/04/17 02:42:45;;;;;;;6.20;2.53;;;7.70;89.50;;;;;;4987897;28;20030;-69
2022/04/17 02:45:11;;;;;;;7.75;3.03;;;7.70;90.50;;;;;;4990289;28;20038;-68
2022/04/17 02:47:51;;;;;;;7.25;2.30;;;7.60;90.30;;;;;;4989515;28;20045;-69
2022/04/17 02:50:19;;;;;;;8.60;3.17;;;7.60;90.10;;;;;;4988386;28;20038;-68
2022/04/17 02:52:45;;;;;;;6.05;2.65;;;7.60;90.10;;;;;;4990335;28;20285;-66
2022/04/17 02:55:11;;;;;;;8.50;2.38;;;7.50;90.50;;;;;;4990021;28;20046;-69
2022/04/17 02:57:37;;;;;;;5.35;2.65;;;7.50;90.40;;;;;;4989008;28;20030;-68
2022/04/17 03:00:05;;;;;;;6.47;2.60;;;7.50;90.70;;;;;;4989925;28;20077;-69
2022/04/17 03:07:58;;;;;;;6.18;2.40;;;7.40;90.70;;;;;;4984100;28;20057;-68
2022/04/17 03:10:25;;;;;;;6.93;3.00;;;7.50;90.40;;;;;;4990424;28;20483;-69
2022/04/17 03:12:50;;;;;;;6.70;2.58;;;7.50;90.10;;;;;;4989325;28;20026;-69
2022/04/17 03:15:16;;;;;;;8.30;2.97;;;7.40;90.60;;;;;;4989947;28;20076;-67
2022/04/17 03:17:42;;;;;;;9.77;2.83;;;7.40;90.00;;;;;;4990300;28;20046;-68
2022/04/17 03:20:08;;;;;;;4.85;2.53;;;7.40;90.20;;;;;;4989741;28;20042;-69
2022/04/17 03:22:34;;;;;;;4.47;2.47;;;7.30;90.50;;;;;;4989336;28;20035;-69
2022/04/17 03:25:01;;;;;;;7.10;2.97;;;7.20;90.70;;;;;;4989964;28;20118;-68
2022/04/17 03:27:28;;;;;;;5.45;2.40;;;7.20;90.30;;;;;;4990194;28;20054;-68
2022/04/17 03:29:54;;;;;;;5.32;2.85;;;7.20;90.50;;;;;;4989515;28;20097;-68
2022/04/17 03:32:20;;;;;;;5.20;2.40;;;7.30;90.50;;;;;;4990143;28;20080;-69
2022/04/17 03:34:45;;;;;;;5.72;2.88;;;7.20;90.50;;;;;;4989690;28;20038;-69
2022/04/17 03:37:11;;;;;;;4.57;2.33;;;7.20;90.60;;;;;;4988130;28;20632;-68
2022/04/17 03:39:37;;;;;;;6.75;3.30;;;7.10;91.20;;;;;;4988713;28;20116;-68
2022/04/17 03:42:02;;;;;;;6.20;2.83;;;7.10;90.70;;;;;;4987623;28;20550;-69
2022/04/17 03:44:29;;;;;;;7.97;2.97;;;7.10;91.00;;;;;;4990222;28;20026;-69
2022/04/17 03:46:54;;;;;;;8.98;2.92;;;7.10;90.50;;;;;;4993445;28;20042;-68
2022/04/17 03:49:20;;;;;;;5.93;2.50;;;7.10;90.50;;;;;;4993750;28;20538;-71
2022/04/17 03:51:45;;;;;;;6.10;2.60;;;7.10;90.60;;;;;;4993795;28;20034;-68
2022/04/17 03:54:11;;;;;;;8.27;2.88;;;7.00;90.90;;;;;;4991428;28;20046;-69
2022/04/17 03:56:36;;;;;;;12.18;2.78;;;7.00;90.70;;;;;;4993237;28;20038;-69
2022/04/17 03:59:02;;;;;;;10.40;3.53;;;7.00;90.90;;;;;;4992841;28;20145;-68
2022/04/17 04:01:28;;;;;;;6.85;2.60;;;7.00;90.90;;;;;;4993350;28;20034;-68
2022/04/17 04:03:54;;;;;;;9.55;2.80;;;7.00;91.60;;;;;;4992778;28;20149;-68
2022/04/17 04:06:21;;;;;;;7.70;2.97;;;6.90;91.40;;;;;;4993683;28;20125;-69
2022/04/17 04:08:48;;;;;;;8.80;2.60;;;6.90;91.10;;;;;;4993652;28;20029;-68
2022/04/17 04:11:14;;;;;;;8.57;3.53;;;6.90;91.40;;;;;;4992877;28;20478;-69
2022/04/17 04:13:42;;;;;;;5.55;2.53;;;6.90;91.10;;;;;;4993100;28;20040;-68
2022/04/17 04:16:07;;;;;;;5.40;2.55;;;6.90;91.30;;;;;;4992926;28;20482;-68
2022/04/17 04:18:33;;;;;;;6.80;3.00;;;6.90;91.20;;;;;;4992013;28;20042;-68
2022/04/17 04:20:59;;;;;;;3.83;2.00;;;6.90;91.10;;;;;;4993027;28;20054;-68
2022/04/17 04:23:24;;;;;;;7.18;3.38;;;6.90;91.80;;;;;;4991466;28;20045;-68
2022/04/17 04:25:50;;;;;;;6.13;2.70;;;6.90;91.40;;;;;;4992852;28;20117;-68
2022/04/17 04:28:34;;;;;;;8.90;3.60;;;6.90;91.50;;;;;;4992962;28;20129;-68
2022/04/17 04:31:08;;;;;;;5.63;2.67;;;6.80;92.00;;;;;;4988144;28;20089;-70
2022/04/17 04:33:35;;;;;;;7.03;2.67;;;6.80;91.80;;;;;;4992492;28;20109;-68
2022/04/17 04:36:04;;;;;;;9.38;2.95;;;6.70;92.10;;;;;;4991320;28;20034;-68
2022/04/17 04:38:30;;;;;;;8.88;2.97;;;6.70;92.10;;;;;;4993154;28;20039;-68
2022/04/17 04:40:56;;;;;;;6.65;2.45;;;6.70;92.10;;;;;;4992259;28;20038;-68
2022/04/17 04:43:21;;;;;;;7.35;2.50;;;6.70;92.50;;;;;;4991010;28;20045;-67
2022/04/17 04:51:17;;;;;;;7.25;3.10;;;6.70;92.80;;;;;;4985179;28;20045;-68
2022/04/17 04:53:43;;;;;;;8.00;2.70;;;6.70;92.60;;;;;;4991373;28;20034;-69
2022/04/17 04:56:09;;;;;;;6.63;3.38;;;6.70;92.40;;;;;;4990106;28;20100;-68
2022/04/17 04:58:35;;;;;;;5.80;2.60;;;6.70;92.80;;;;;;4991437;28;20049;-68
2022/04/17 05:01:02;;;;;;;7.82;2.70;;;6.70;92.70;;;;;;4990547;28;20399;-68
2022/04/17 05:03:28;;;;;;;17.25;3.25;;;6.70;92.80;;;;;;4991941;28;20391;-68
2022/04/17 05:05:53;;;;;;;5.40;2.67;;;6.70;92.70;;;;;;4991983;28;20091;-68
2022/04/17 05:08:19;;;;;;;7.45;2.53;;;6.80;92.50;;;;;;4992614;28;20046;-68
2022/04/17 05:10:46;;;;;;;7.05;2.90;;;6.80;92.60;;;;;;4992259;28;20109;-68
2022/04/17 05:13:11;;;;;;;8.95;3.28;;;6.70;92.50;;;;;;4991763;28;20042;-67
2022/04/17 05:15:37;;;;;;;6.05;2.72;;;6.70;93.00;;;;;;4992289;28;20125;-68
2022/04/17 05:18:03;;;;;;;7.18;3.42;;;6.70;93.00;;;;;;4989935;28;20094;-68
2022/04/17 05:20:33;;;;;;;11.27;2.63;;;6.70;93.00;;;;;;4991600;28;20494;-69
2022/04/17 05:23:04;;;;;;;8.32;2.78;;;6.80;92.70;;;;;;4989970;28;20034;-69
2022/04/17 05:25:29;;;;;;;;;;;6.90;92.40;;;;;;4992600;28;20066;-68
2022/04/17 05:27:55;;;;;;;5.32;2.67;;;6.90;92.50;;;;;;4991934;28;19917;-69
2022/04/17 05:30:21;;;;;;;4.47;2.28;;;7.00;92.30;;;;;;4992115;28;20561;-68
2022/04/17 05:32:46;;;;;;;7.85;2.78;;;7.00;93.10;;;;;;4991411;28;20058;-68
2022/04/17 05:35:12;;;;;;;10.23;2.83;;;7.10;92.20;;;;;;4991440;28;20038;-69
2022/04/17 05:37:37;;;;;;;5.38;3.20;;;7.10;92.40;;;;;;4992159;28;20038;-70
2022/04/17 05:40:03;;;;;;;7.38;3.25;;;7.10;92.50;;;;;;4991456;28;20030;-68
2022/04/17 05:42:29;;;;;;;12.43;2.63;;;7.20;93.00;;;;;;4990335;28;20520;-68
2022/04/17 05:44:55;;;;;;;13.20;2.80;;;7.20;92.20;;;;;;4990903;28;20034;-68
2022/04/17 05:47:21;;;;;;;5.15;2.65;;;7.30;92.20;;;;;;4991315;28;20038;-68
2022/04/17 05:49:46;;;;;;;6.43;2.63;;;7.80;92.10;;;;;;4991673;28;20038;-70
2022/04/17 05:52:12;;;;;;;4.55;2.38;;;8.90;90.70;;;;;;4989820;28;20056;-69
2022/04/17 05:54:43;;;;;;;5.93;2.58;;;10.40;88.80;;;;;;4991398;28;20042;-68
2022/04/17 05:57:09;;;;;;;6.75;2.60;;;11.80;82.70;;;;;;4990708;28;20030;-69
2022/04/17 05:59:36;;;;;;;5.93;2.15;;;13.00;76.70;;;;;;4987442;28;20045;-69
2022/04/17 06:02:02;;;;;;;5.55;2.60;;;13.90;73.90;;;;;;4968175;28;20066;-69
2022/04/17 06:04:28;;;;;;;6.32;2.15;;;14.60;72.10;;;;;;4970632;28;20027;-69
2022/04/17 06:06:54;;;;;;;5.65;2.25;;;15.10;69.90;;;;;;4968923;28;20042;-69
2022/04/17 06:09:19;;;;;;;5.22;2.70;;;15.80;69.60;;;;;;4970583;28;20027;-70
2022/04/17 06:11:45;;;;;;;3.80;2.30;;;16.20;68.20;;;;;;4990951;28;20062;-69
2022/04/17 06:14:10;;;;;;;3.83;2.20;;;17.40;63.60;;;;;;4982290;28;20046;-70
2022/04/17 06:16:36;;;;;;;3.13;2.15;;;18.00;60.90;;;;;;4975795;28;20035;-71
2022/04/17 06:19:02;;;;;;;6.05;1.95;;;17.40;60.90;;;;;;4969659;28;20110;-70
2022/04/17 06:21:28;;;;;;;2.90;1.90;;;18.00;57.90;;;;;;4968131;28;20198;-70
2022/04/17 06:23:54;;;;;;;3.47;2.03;;;17.40;59.80;;;;;;4968173;28;20037;-70
2022/04/17 06:26:19;;;;;;;2.78;1.85;;;17.70;57.30;;;;;;4968661;28;20035;-70
2022/04/17 06:28:45;;;;;;;3.13;2.13;;;18.10;57.90;;;;;;4970117;28;20062;-70
2022/04/17 06:31:10;;;;;;;4.40;2.40;;;17.90;58.00;;;;;;4968749;28;20043;-70
2022/04/17 06:33:36;;;;;;;3.70;2.25;;;17.90;57.40;;;;;;4970944;28;20026;-70
2022/04/17 06:36:01;;;;;;;4.00;1.98;;;18.20;57.70;;;;;;4970079;28;20027;-70
2022/04/17 06:38:28;;;;;;;3.42;1.65;;;18.60;56.00;;;;;;4982972;28;20112;-70
2022/04/17 06:40:54;;;;;;;4.63;2.47;;;18.80;55.00;;;;;;4990371;28;20034;-71
2022/04/17 06:43:19;;;;;;;4.15;2.15;;;19.00;55.80;;;;;;4989339;28;20045;-70
2022/04/17 06:45:45;;;;;;;4.60;2.53;;;19.40;53.60;;;;;;4989571;28;20478;-69
2022/04/17 06:48:15;;;;;;;4.38;2.20;;;19.00;55.20;;;;;;4989679;28;20113;-71
2022/04/17 06:50:42;;;;;;;4.68;2.25;;;19.20;54.20;;;;;;4982925;28;20089;-69
2022/04/17 06:53:08;;;;;;;5.00;2.17;;;19.30;54.50;;;;;;4985646;28;20053;-70
2022/04/17 06:55:33;;;;;;;3.10;2.10;;;19.70;53.40;;;;;;4982542;28;20061;-70
2022/04/17 06:57:59;;;;;;;3.10;2.22;;;20.20;51.80;;;;;;4988079;28;20142;-70
2022/04/17 07:00:25;;;;;;;5.20;1.70;;;19.60;52.10;;;;;;4989277;28;20048;-70
2022/04/17 07:02:50;;;;;;;3.70;1.80;;;19.50;51.60;;;;;;4988813;28;20574;-70
2022/04/17 07:05:16;;;;;;;6.35;2.63;;;19.40;51.60;;;;;;4989093;28;20042;-68
2022/04/17 07:07:42;;;;;;;4.32;1.75;;;19.10;51.70;;;;;;4989216;28;20022;-70
2022/04/17 07:10:09;;;;;;;2.97;1.52;;;19.20;51.50;;;;;;4968211;28;20037;-70
2022/04/17 07:12:34;;;;;;;8.55;2.28;;;19.10;51.50;;;;;;4984458;28;20061;-70
2022/04/17 07:15:01;;;;;;;2.92;1.83;;;18.70;51.50;;;;;;4983223;28;20034;-70
2022/04/17 07:17:34;;;;;;;6.70;2.40;;;18.60;52.10;;;;;;4987936;28;20042;-69
2022/04/17 07:20:00;;;;;;;7.32;2.13;;;17.90;52.60;;;;;;4986164;28;20092;-69
2022/04/17 07:22:25;;;;;;;2.97;1.80;;;17.90;53.60;;;;;;4987910;28;20477;-70
2022/04/17 07:24:54;;;;;;;4.45;2.15;;;17.40;53.50;;;;;;4988168;28;20121;-69
2022/04/17 07:27:20;;;;;;;3.50;1.80;;;16.90;55.20;;;;;;4989151;28;20034;-69
2022/04/17 07:29:46;;;;;;;3.00;1.73;;;16.30;55.70;;;;;;4988699;28;20126;-69
2022/04/17 07:32:11;;;;;;;5.05;1.80;;;16.00;55.80;;;;;;4988881;28;20041;-70
2022/04/17 07:34:37;;;;;;;4.70;1.70;;;15.50;57.00;;;;;;4985282;28;20031;-68
2022/04/17 07:37:03;;;;;;;2.97;1.25;;;15.30;60.30;;;;;;5000567;22;20134;-72
2022/04/17 07:39:29;;;;;;;4.72;1.90;;;15.10;60.40;;;;;;4993043;28;20494;-70
2022/04/17 07:41:55;;;;;;;4.82;2.00;;;14.90;59.20;;;;;;5003296;28;20482;-70
2022/04/17 07:44:20;;;;;;;3.08;1.73;;;14.80;59.60;;;;;;4995362;28;20466;-72
2022/04/17 07:46:46;;;;;;;5.68;1.92;;;14.70;59.80;;;;;;4979065;28;20042;-71
2022/04/17 07:49:12;;;;;;;2.85;1.52;;;14.60;61.70;;;;;;5008946;22;20076;-61
2022/04/17 07:51:37;;;;;;;4.55;1.55;;;14.60;63.70;;;;;;4998758;28;20037;-61
2022/04/17 07:54:03;;;;;;;3.28;1.90;;;14.70;61.10;;;;;;5002078;28;20137;-60
2022/04/17 07:56:29;;;;;;;2.60;1.83;;;14.50;61.60;;;;;;4998097;28;20041;-61
2022/04/17 07:58:55;;;;;;;3.20;1.70;;;14.50;60.80;;;;;;4996232;28;20042;-60
2022/04/17 08:01:21;;;;;;;6.30;2.53;;;14.50;60.80;;;;;;4995199;28;20038;-61
2022/04/17 08:03:47;;;;;;;4.82;1.80;;;14.40;61.40;;;;;;4995865;28;20034;-60
2022/04/17 08:06:20;;;;;;;3.47;1.80;;;14.50;61.80;;;;;;4997708;28;20119;-60
2022/04/17 08:08:46;;;;;;;4.15;1.50;;;14.60;63.10;;;;;;4996644;28;20045;-59
2022/04/17 08:11:12;;;;;;;3.75;2.03;;;14.50;60.70;;;;;;4995503;28;20053;-63
2022/04/17 08:13:38;;;;;;;4.18;1.90;;;14.50;60.80;;;;;;4996953;28;20034;-62
2022/04/17 08:16:06;;;;;;;4.93;1.83;;;14.50;63.80;;;;;;4987506;28;20088;-60
2022/04/17 08:18:33;;;;;;;2.75;1.60;;;14.60;62.00;;;;;;4997959;28;20041;-60
2022/04/17 08:20:59;;;;;;;3.17;1.55;;;14.70;63.50;;;;;;4994958;28;20030;-59
2022/04/17 08:23:25;;;;;;;5.57;2.00;;;14.60;62.60;;;;;;4996756;28;20045;-59
2022/04/17 08:25:51;;;;;;;4.55;1.83;;;14.60;63.80;;;;;;4992520;28;20038;-61
2022/04/17 08:28:16;;;;;;;3.53;1.50;;;14.70;62.00;;;;;;4993840;28;20449;-59
2022/04/17 08:30:42;;;;;;;2.72;1.38;;;14.70;62.80;;;;;;4996533;28;20041;-60
2022/04/17 08:33:08;;;;;;;3.15;1.75;;;14.70;63.20;;;;;;4996725;28;20387;-60
2022/04/17 08:35:34;;;;;;;3.63;1.58;;;14.70;63.20;;;;;;5002274;28;20108;-60
2022/04/17 08:38:00;;;;;;;4.00;2.00;;;14.80;61.90;;;;;;4995756;28;20034;-60
2022/04/17 08:40:27;;;;;;;3.33;1.88;;;15.00;62.70;;;;;;4999636;28;20064;-60
2022/04/17 08:42:56;;;;;;;3.28;1.50;;;15.00;61.80;;;;;;4999952;28;20045;-60
2022/04/17 08:45:23;;;;;;;3.22;1.85;;;15.10;61.50;;;;;;4999990;28;20038;-60
2022/04/17 08:47:50;;;;;;;3.05;1.60;;;15.10;62.30;;;;;;5000358;28;20382;-60
2022/04/17 08:50:18;;;;;;;2.38;1.33;;;15.10;61.70;;;;;;4998896;28;20506;-60
2022/04/17 08:52:52;;;;;;;3.30;1.67;;;15.10;61.60;;;;;;4998914;28;20055;-61
2022/04/17 08:55:17;;;;;;;4.70;1.55;;;15.20;62.40;;;;;;4999745;28;20514;-59
2022/04/17 08:57:43;;;;;;;3.38;1.60;;;15.20;65.20;;;;;;4999569;28;20121;-60
2022/04/17 09:00:13;;;;;;;5.00;1.60;;;15.40;63.20;;;;;;5000879;28;20549;-61
2022/04/17 09:02:39;;;;;;;4.20;1.80;;;15.50;62.30;;;;;;4997897;28;20045;-61
2022/04/17 09:05:05;;;;;;;3.88;1.58;;;15.70;61.90;;;;;;5000941;28;20448;-62
2022/04/17 09:07:45;;;;;;;2.28;1.33;;;15.70;64.10;;;;;;4994436;28;20057;-61
2022/04/17 09:10:11;;;;;;;2.95;1.65;;;15.70;61.30;;;;;;4996292;28;20049;-62
2022/04/17 09:12:36;;;;;;;3.60;1.85;;;15.70;61.60;;;;;;5000644;28;20038;-61
2022/04/17 09:15:03;;;;;;;3.78;1.95;;;15.80;64.30;;;;;;4997797;28;20037;-61
2022/04/17 09:17:33;;;;;;;2.95;1.73;;;15.90;64.90;;;;;;5001230;28;20064;-60
2022/04/17 09:19:59;;;;;;;2.40;1.80;;;15.90;61.20;;;;;;4996201;28;20114;-62
2022/04/17 09:22:44;;;;;;;4.97;1.58;;;16.00;61.50;;;;;;5000330;28;20034;-61
2022/04/17 09:25:13;;;;;;;3.78;1.77;;;16.00;61.70;;;;;;4995181;28;20038;-62
2022/04/17 09:27:54;;;;;;;2.83;1.65;;;16.10;62.80;;;;;;4993364;28;20384;-61
2022/04/17 09:30:29;;;;;;;3.38;1.98;;;16.20;61.30;;;;;;4989513;28;20034;-61
2022/04/17 09:32:56;;;;;;;3.90;2.30;;;16.20;63.50;;;;;;4993179;28;20046;-61
2022/04/17 09:35:26;;;;;;;3.65;1.75;;;16.20;61.80;;;;;;4996841;28;20192;-62
2022/04/17 09:37:57;;;;;;;3.67;1.70;;;16.40;60.70;;;;;;4997239;28;20511;-64
2022/04/17 09:40:23;;;;;;;2.78;1.60;;;16.30;61.10;;;;;;4999171;28;20129;-61
2022/04/17 09:42:49;;;;;;;4.40;2.22;;;16.40;62.40;;;;;;4995716;28;20132;-62
2022/04/17 09:45:15;;;;;;;4.43;1.92;;;16.50;61.40;;;;;;4998771;28;20483;-61
2022/04/17 09:47:40;;;;;;;3.13;1.85;;;16.50;59.70;;;;;;4999794;28;20026;-62
2022/04/17 09:50:08;;;;;;;3.55;1.65;;;16.50;58.90;;;;;;4995749;28;20030;-61
2022/04/17 09:52:40;;;;;;;5.60;1.80;;;16.40;60.70;;;;;;4999997;28;20042;-61
2022/04/17 09:55:06;;;;;;;3.10;2.03;;;16.40;59.60;;;;;;4997254;28;20053;-62
2022/04/17 09:57:34;;;;;;;2.92;1.80;;;16.50;62.50;;;;;;5000766;28;20038;-61
2022/04/17 10:00:14;;;;;;;3.28;1.65;;;16.60;60.90;;;;;;4993025;28;20394;-62
2022/04/17 10:02:42;;;;;;;3.20;1.60;;;16.80;60.20;;;;;;4995358;28;20038;-61
2022/04/17 10:05:14;;;;;;;4.03;1.73;;;16.80;58.00;;;;;;4999534;28;20083;-61
2022/04/17 10:07:42;;;;;;;3.10;1.58;;;16.80;59.70;;;;;;4998567;28;20454;-61
2022/04/17 10:10:08;;;;;;;2.03;1.35;;;16.70;58.20;;;;;;4999051;28;20037;-61
2022/04/17 10:12:38;;;;;;;3.08;1.70;;;16.70;58.60;;;;;;4995060;28;20133;-61
2022/04/17 10:15:06;;;;;;;2.03;1.33;;;16.70;61.80;;;;;;4999877;28;20068;-62
2022/04/17 10:17:36;;;;;;;4.90;1.65;;;16.80;61.70;;;;;;4997119;28;20026;-61
2022/04/17 10:20:06;;;;;;;2.83;1.60;;;16.80;58.70;;;;;;4999273;28;20041;-60
2022/04/17 10:22:38;;;;;;;4.50;1.42;;;16.90;59.20;;;;;;4996380;28;20286;-61
2022/04/17 10:25:06;;;;;;;3.13;1.52;;;17.00;58.70;;;;;;4999093;28;20038;-61
2022/04/17 10:27:43;;;;;;;2.53;1.30;;;16.90;58.40;;;;;;4995944;28;20042;-61
2022/04/17 10:30:23;;;;;;;4.15;1.65;;;17.00;58.50;;;;;;4998904;28;20064;-61
2022/04/17 10:33:13;;;;;;;3.25;1.70;;;16.90;59.80;;;;;;4999036;28;20403;-61
2022/04/17 10:35:59;;;;;;;4.68;2.08;;;17.00;58.70;;;;;;4995531;28;20097;-61
2022/04/17 10:38:44;;;;;;;2.92;1.65;;;16.90;59.60;;;;;;4992932;28;20038;-62
2022/04/17 10:41:12;;;;;;;4.35;1.73;;;17.00;60.70;;;;;;4995982;28;20041;-61
2022/04/17 10:43:46;;;;;;;2.90;1.42;;;17.00;58.10;;;;;;4997989;28;20048;-61
2022/04/17 10:46:16;;;;;;;2.85;1.40;;;17.00;57.90;;;;;;4997673;28;20034;-61
2022/04/17 10:48:49;;;;;;;2.58;1.35;;;17.10;61.20;;;;;;4997874;28;20044;-61
2022/04/17 10:51:26;;;;;;;3.05;1.73;;;17.20;58.30;;;;;;4997395;28;20121;-60
2022/04/17 10:54:13;;;;;;;4.85;2.15;;;17.40;58.10;;;;;;4994622;28;20030;-63
2022/04/17 10:57:00;;;;;;;1.70;1.33;;;17.20;57.20;;;;;;4996432;28;20034;-61
2022/04/17 10:59:33;;;;;;;3.70;1.90;;;17.10;56.80;;;;;;4992517;28;20041;-61
2022/04/17 11:02:10;;;;;;;2.45;1.27;;;17.00;59.20;;;;;;4991164;28;20050;-61
2022/04/17 11:04:54;;;;;;;5.00;1.80;;;17.00;58.10;;;;;;4998109;28;20141;-61
2022/04/17 11:07:20;;;;;;;3.00;1.35;;;16.90;59.30;;;;;;4998541;28;20326;-62
2022/04/17 11:09:46;;;;;;;6.95;1.63;;;17.00;58.00;;;;;;4998511;28;20040;-62
2022/04/17 11:12:18;;;;;;;3.88;1.55;;;17.00;57.40;;;;;;4995719;28;20121;-61
2022/04/17 11:15:01;;;;;;;3.25;1.48;;;17.10;58.00;;;;;;4997771;28;20042;-61
2022/04/17 11:17:31;;;;;;;2.72;1.45;;;17.20;58.80;;;;;;4992213;28;20363;-61
2022/04/17 11:19:59;;;;;;;4.65;1.77;;;17.30;58.20;;;;;;4992554;28;20038;-62
2022/04/17 11:22:33;;;;;;;3.53;1.65;;;17.30;56.60;;;;;;4994992;28;20035;-63
2022/04/17 11:24:59;;;;;;;4.43;1.48;;;17.30;59.70;;;;;;4991244;28;20038;-62
2022/04/17 11:28:02;;;;;;;3.85;1.50;;;17.20;56.80;;;;;;4999229;28;20041;-62
2022/04/17 11:30:27;;;;;;;2.88;1.70;;;17.30;57.50;;;;;;4991129;28;20046;-62
2022/04/17 11:32:54;;;;;;;3.35;1.73;;;17.40;58.00;;;;;;4998263;28;20085;-62
2022/04/17 11:35:22;;;;;;;2.28;1.35;;;17.40;57.30;;;;;;4993989;28;20044;-61
2022/04/17 11:37:52;;;;;;;2.17;1.33;;;17.40;55.80;;;;;;4996179;28;20038;-62
2022/04/17 11:40:19;;;;;;;;;;;17.20;55.40;;;;;;4999155;28;20041;-61
2022/04/17 11:42:54;;;;;;;2.58;1.25;;;17.30;57.30;;;;;;4994001;28;19928;-61
2022/04/17 11:45:20;;;;;;;4.78;1.77;;;17.30;57.20;;;;;;4998953;28;20485;-62
2022/04/17 11:47:48;;;;;;;2.67;1.20;;;17.40;57.70;;;;;;4995763;28;20043;-62
2022/04/17 11:50:28;;;;;;;4.05;1.20;;;17.40;55.30;;;;;;4997700;28;20042;-62
2022/04/17 11:53:02;;;;;;;2.33;1.40;;;17.40;55.00;;;;;;4976575;28;20030;-62
2022/04/17 11:55:33;;;;;;;3.38;1.20;;;17.30;55.30;;;;;;4997618;28;20038;-61
2022/04/17 11:58:00;;;;;;;3.20;1.30;;;17.20;56.30;;;;;;4991862;28;20038;-61
2022/04/17 12:00:27;;;;;;;2.88;1.77;;;17.10;57.40;;;;;;4991363;28;20498;-62
2022/04/17 12:03:05;;;;;;;3.78;1.50;;;16.80;55.10;;;;;;4989275;28;20042;-62
2022/04/17 12:05:32;;;;;;;5.25;1.45;;;16.80;55.50;;;;;;4992382;28;20034;-62
2022/04/17 12:08:02;;;;;;;3.88;1.38;;;16.70;55.30;;;;;;5001463;28;20113;-60
2022/04/17 12:10:28;;;;;;;1.83;1.13;;;16.70;55.90;;;;;;4998532;28;20045;-61
2022/04/17 12:12:54;;;;;;;2.28;1.10;;;16.80;55.30;;;;;;5001520;28;20030;-62
2022/04/17 12:15:21;;;;;;;2.05;1.15;;;16.80;54.20;;;;;;4996572;28;20038;-61
2022/04/17 12:17:58;;;;;;;4.43;1.38;;;16.90;55.30;;;;;;4992706;28;20045;-62
2022/04/17 12:20:25;;;;;;;7.38;1.58;;;17.00;54.20;;;;;;4990351;28;20042;-61
2022/04/17 12:22:50;;;;;;;3.67;1.20;;;17.00;52.10;;;;;;4992301;28;20034;-62
2022/04/17 12:25:24;;;;;;;2.00;1.10;;;16.90;53.10;;;;;;5000674;28;20030;-61
2022/04/17 12:27:52;;;;;;;1.98;1.13;;;16.90;53.50;;;;;;4994323;28;20042;-62
2022/04/17 12:30:25;;;;;;;1.75;1.10;;;17.00;55.50;;;;;;4994010;28;20041;-62
2022/04/17 12:32:59;;;;;;;1.55;0.80;;;17.00;56.10;;;;;;4990952;28;20030;-61
2022/04/17 12:35:27;;;;;;;3.42;1.30;;;17.10;54.80;;;;;;4994079;28;20164;-61
2022/04/17 12:38:06;;;;;;;3.88;1.50;;;17.20;53.40;;;;;;4996822;28;20490;-62
2022/04/17 12:40:42;;;;;;;2.90;1.00;;;17.10;52.80;;;;;;4995479;28;20035;-62
2022/04/17 12:43:20;;;;;;;3.70;0.90;;;17.00;53.00;;;;;;4997974;28;20073;-62
2022/04/17 12:45:57;;;;;;;1.55;0.95;;;17.00;53.60;;;;;;4997562;28;20050;-61
2022/04/17 12:48:25;;;;;;;2.08;1.30;;;17.00;54.00;;;;;;4995815;28;20048;-62
2022/04/17 12:50:58;;;;;;;1.85;0.90;;;17.00;54.70;;;;;;5000864;28;20435;-61
2022/04/17 12:53:25;;;;;;;1.75;0.80;;;17.10;54.80;;;;;;4992775;28;20031;-61
2022/04/17 12:55:53;;;;;;;5.10;1.20;;;17.20;54.40;;;;;;4997822;28;20034;-61
2022/04/17 12:58:20;;;;;;;2.75;1.13;;;17.10;54.20;;;;;;4992625;28;20050;-62
2022/04/17 13:00:55;;;;;;;1.50;0.98;;;17.20;51.50;;;;;;5000872;28;20034;-62
2022/04/17 13:03:23;;;;;;;2.00;0.85;;;17.10;51.60;;;;;;4996679;28;20042;-62
2022/04/17 13:06:02;;;;;;;2.17;1.23;;;17.10;52.30;;;;;;4993410;28;20546;-62
2022/04/17 13:08:28;;;;;;;2.72;1.13;;;17.20;55.30;;;;;;4997627;28;20060;-62